sensor_id;sensor_type;location;lat;lon;timestamp;temperature;humidity
21592;DHT22;10958;50.892;3.992;2023-08-07T00:00:09;13.60;99.90
21592;DHT22;10958;50.892;3.992;2023-08-07T00:02:36;13.60;99.90
21592;DHT22;10958;50.892;3.992;2023-08-07T00:05:04;13.70;99.90
21592;DHT22;10958;50.892;3.992;2023-08-07T00:07:29;13.60;99.90
21592;DHT22;10958;50.892;3.992;2023-08-07T00:09:55;13.30;99.90
21592;DHT22;10958;50.892;3.992;2023-08-07T00:12:21;13.40;99.90
21592;DHT22;10958;50.892;3.992;2023-08-07T00:14:49;13.30;99.90
21592;DHT22;10958;50.892;3.992;2023-08-07T00:17:15;13.30;99.90
21592;DHT22;10958;50.892;3.992;2023-08-07T00:19:43;13.00;99.90
21592;DHT22;10958;50.892;3.992;2023-08-07T00:22:09;13.10;99.90
21592;DHT22;10958;50.892;3.992;2023-08-07T00:24:35;13.10;99.90
21592;DHT22;10958;50.892;3.992;2023-08-07T00:27:01;13.00;99.90
21592;DHT22;10958;50.892;3.992;2023-08-07T00:29:27;13.00;99.90
21592;DHT22;10958;50.892;3.992;2023-08-07T00:31:53;13.10;99.90
21592;DHT22;10958;50.892;3.992;2023-08-07T00:34:19;13.00;99.90
21592;DHT22;10958;50.892;3.992;2023-08-07T00:36:44;13.00;99.90
21592;DHT22;10958;50.892;3.992;2023-08-07T00:39:11;13.00;99.90
21592;DHT22;10958;50.892;3.992;2023-08-07T00:41:36;12.90;99.90
21592;DHT22;10958;50.892;3.992;2023-08-07T00:44:02;12.90;99.90
21592;DHT22;10958;50.892;3.992;2023-08-07T00:46:29;12.90;99.90
21592;DHT22;10958;50.892;3.992;2023-08-07T00:48:56;13.00;99.90
21592;DHT22;10958;50.892;3.992;2023-08-07T00:51:23;13.10;99.90
21592;DHT22;10958;50.892;3.992;2023-08-07T00:53:49;13.20;99.90
21592;DHT22;10958;50.892;3.992;2023-08-07T00:56:17;13.00;99.90
21592;DHT22;10958;50.892;3.992;2023-08-07T00:58:43;13.00;99.90
21592;DHT22;10958;50.892;3.992;2023-08-07T01:01:09;13.00;99.90
21592;DHT22;10958;50.892;3.992;2023-08-07T01:03:35;13.10;99.90
21592;DHT22;10958;50.892;3.992;2023-08-07T01:06:01;13.00;99.90
21592;DHT22;10958;50.892;3.992;2023-08-07T01:08:27;13.00;99.90
21592;DHT22;10958;50.892;3.992;2023-08-07T01:14:00;12.90;99.90
21592;DHT22;10958;50.892;3.992;2023-08-07T01:16:37;13.00;99.90
21592;DHT22;10958;50.892;3.992;2023-08-07T01:19:07;12.80;99.90
21592;DHT22;10958;50.892;3.992;2023-08-07T01:21:34;12.80;99.90
21592;DHT22;10958;50.892;3.992;2023-08-07T01:24:00;12.70;99.90
21592;DHT22;10958;50.892;3.992;2023-08-07T01:26:28;12.70;99.90
21592;DHT22;10958;50.892;3.992;2023-08-07T01:29:23;12.70;99.90
21592;DHT22;10958;50.892;3.992;2023-08-07T01:31:53;12.80;99.90
21592;DHT22;10958;50.892;3.992;2023-08-07T01:34:21;12.80;99.90
21592;DHT22;10958;50.892;3.992;2023-08-07T01:36:49;12.90;99.90
21592;DHT22;10958;50.892;3.992;2023-08-07T01:39:18;12.80;99.90
21592;DHT22;10958;50.892;3.992;2023-08-07T01:41:50;12.80;99.90
21592;DHT22;10958;50.892;3.992;2023-08-07T01:44:16;12.90;99.90
21592;DHT22;10958;50.892;3.992;2023-08-07T01:46:41;13.00;99.90
21592;DHT22;10958;50.892;3.992;2023-08-07T01:49:07;13.00;99.90
21592;DHT22;10958;50.892;3.992;2023-08-07T01:51:33;12.90;99.90
21592;DHT22;10958;50.892;3.992;2023-08-07T01:53:58;13.00;99.90
21592;DHT22;10958;50.892;3.992;2023-08-07T01:56:24;13.00;99.90
21592;DHT22;10958;50.892;3.992;2023-08-07T01:58:50;13.10;99.90
21592;DHT22;10958;50.892;3.992;2023-08-07T02:01:16;13.00;99.90
21592;DHT22;10958;50.892;3.992;2023-08-07T02:03:41;12.90;99.90
21592;DHT22;10958;50.892;3.992;2023-08-07T02:06:09;12.80;99.90
21592;DHT22;10958;50.892;3.992;2023-08-07T02:08:35;13.00;99.90
21592;DHT22;10958;50.892;3.992;2023-08-07T02:11:01;12.90;99.90
21592;DHT22;10958;50.892;3.992;2023-08-07T02:13:28;12.70;99.90
21592;DHT22;10958;50.892;3.992;2023-08-07T02:15:58;12.70;99.90
21592;DHT22;10958;50.892;3.992;2023-08-07T02:18:26;12.50;99.90
21592;DHT22;10958;50.892;3.992;2023-08-07T02:20:52;12.50;99.90
21592;DHT22;10958;50.892;3.992;2023-08-07T02:23:20;12.40;99.90
21592;DHT22;10958;50.892;3.992;2023-08-07T02:25:45;12.60;99.90
21592;DHT22;10958;50.892;3.992;2023-08-07T02:28:11;12.50;99.90
21592;DHT22;10958;50.892;3.992;2023-08-07T02:30:37;12.50;99.90
21592;DHT22;10958;50.892;3.992;2023-08-07T02:33:06;12.50;99.90
21592;DHT22;10958;50.892;3.992;2023-08-07T02:35:32;12.50;99.90
21592;DHT22;10958;50.892;3.992;2023-08-07T02:38:01;12.50;99.90
21592;DHT22;10958;50.892;3.992;2023-08-07T02:40:27;12.50;99.90
21592;DHT22;10958;50.892;3.992;2023-08-07T02:42:52;12.40;99.90
21592;DHT22;10958;50.892;3.992;2023-08-07T02:45:18;12.60;99.90
21592;DHT22;10958;50.892;3.992;2023-08-07T02:47:44;12.70;99.90
21592;DHT22;10958;50.892;3.992;2023-08-07T02:50:10;12.70;99.90
21592;DHT22;10958;50.892;3.992;2023-08-07T02:52:35;12.70;99.90
21592;DHT22;10958;50.892;3.992;2023-08-07T02:55:03;12.60;99.90
21592;DHT22;10958;50.892;3.992;2023-08-07T02:57:29;12.70;99.90
21592;DHT22;10958;50.892;3.992;2023-08-07T02:59:54;12.80;99.90
21592;DHT22;10958;50.892;3.992;2023-08-07T03:02:20;12.90;99.90
21592;DHT22;10958;50.892;3.992;2023-08-07T03:04:48;13.00;99.90
21592;DHT22;10958;50.892;3.992;2023-08-07T03:07:13;13.00;99.90
21592;DHT22;10958;50.892;3.992;2023-08-07T03:09:39;13.10;99.90
21592;DHT22;10958;50.892;3.992;2023-08-07T03:12:05;13.10;99.90
21592;DHT22;10958;50.892;3.992;2023-08-07T03:14:31;13.20;99.90
21592;DHT22;10958;50.892;3.992;2023-08-07T03:16:56;13.30;99.90
21592;DHT22;10958;50.892;3.992;2023-08-07T03:19:22;13.30;99.90
21592;DHT22;10958;50.892;3.992;2023-08-07T03:21:49;13.00;99.90
21592;DHT22;10958;50.892;3.992;2023-08-07T03:24:15;13.00;99.90
21592;DHT22;10958;50.892;3.992;2023-08-07T03:26:43;12.90;99.90
21592;DHT22;10958;50.892;3.992;2023-08-07T03:29:09;12.80;99.90
21592;DHT22;10958;50.892;3.992;2023-08-07T03:31:35;12.60;99.90
21592;DHT22;10958;50.892;3.992;2023-08-07T03:34:01;12.60;99.90
21592;DHT22;10958;50.892;3.992;2023-08-07T03:36:30;12.70;99.90
21592;DHT22;10958;50.892;3.992;2023-08-07T03:38:57;12.80;99.90
21592;DHT22;10958;50.892;3.992;2023-08-07T03:41:23;12.70;99.90
21592;DHT22;10958;50.892;3.992;2023-08-07T03:43:48;12.60;99.90
21592;DHT22;10958;50.892;3.992;2023-08-07T03:46:14;12.60;99.90
21592;DHT22;10958;50.892;3.992;2023-08-07T03:48:40;12.60;99.90
21592;DHT22;10958;50.892;3.992;2023-08-07T03:51:07;12.70;99.90
21592;DHT22;10958;50.892;3.992;2023-08-07T03:53:44;12.60;99.90
21592;DHT22;10958;50.892;3.992;2023-08-07T03:56:10;12.70;99.90
21592;DHT22;10958;50.892;3.992;2023-08-07T03:58:36;12.60;99.90
21592;DHT22;10958;50.892;3.992;2023-08-07T04:01:01;12.70;99.90
21592;DHT22;10958;50.892;3.992;2023-08-07T04:03:27;12.60;99.90
21592;DHT22;10958;50.892;3.992;2023-08-07T04:05:54;12.50;99.90
21592;DHT22;10958;50.892;3.992;2023-08-07T04:08:21;12.50;99.90
21592;DHT22;10958;50.892;3.992;2023-08-07T04:10:58;12.50;99.90
21592;DHT22;10958;50.892;3.992;2023-08-07T04:13:27;12.40;99.90
21592;DHT22;10958;50.892;3.992;2023-08-07T04:15:53;12.40;99.90
21592;DHT22;10958;50.892;3.992;2023-08-07T04:18:21;12.50;99.90
21592;DHT22;10958;50.892;3.992;2023-08-07T04:20:53;12.40;99.90
21592;DHT22;10958;50.892;3.992;2023-08-07T04:23:21;12.50;99.90
21592;DHT22;10958;50.892;3.992;2023-08-07T04:25:50;12.50;99.90
21592;DHT22;10958;50.892;3.992;2023-08-07T04:28:16;12.50;99.90
21592;DHT22;10958;50.892;3.992;2023-08-07T04:30:43;12.60;99.90
21592;DHT22;10958;50.892;3.992;2023-08-07T04:33:09;12.50;99.90
21592;DHT22;10958;50.892;3.992;2023-08-07T04:35:36;12.40;99.90
21592;DHT22;10958;50.892;3.992;2023-08-07T04:38:05;12.40;99.90
21592;DHT22;10958;50.892;3.992;2023-08-07T04:40:33;12.60;99.90
21592;DHT22;10958;50.892;3.992;2023-08-07T04:42:59;12.30;99.90
21592;DHT22;10958;50.892;3.992;2023-08-07T04:45:25;12.30;99.90
21592;DHT22;10958;50.892;3.992;2023-08-07T04:47:51;12.30;99.90
21592;DHT22;10958;50.892;3.992;2023-08-07T04:50:17;12.40;99.90
21592;DHT22;10958;50.892;3.992;2023-08-07T04:52:42;12.40;99.90
21592;DHT22;10958;50.892;3.992;2023-08-07T04:55:08;12.30;99.90
21592;DHT22;10958;50.892;3.992;2023-08-07T04:57:36;12.50;99.90
21592;DHT22;10958;50.892;3.992;2023-08-07T05:00:03;12.60;99.90
21592;DHT22;10958;50.892;3.992;2023-08-07T05:02:28;12.60;99.90
21592;DHT22;10958;50.892;3.992;2023-08-07T05:04:54;12.60;99.90
21592;DHT22;10958;50.892;3.992;2023-08-07T05:07:20;12.60;99.90
21592;DHT22;10958;50.892;3.992;2023-08-07T05:09:49;12.60;99.90
21592;DHT22;10958;50.892;3.992;2023-08-07T05:12:16;12.80;99.90
21592;DHT22;10958;50.892;3.992;2023-08-07T05:14:41;12.80;99.90
21592;DHT22;10958;50.892;3.992;2023-08-07T05:17:07;12.80;99.90
21592;DHT22;10958;50.892;3.992;2023-08-07T05:19:33;12.90;99.90
21592;DHT22;10958;50.892;3.992;2023-08-07T05:21:59;12.90;99.90
21592;DHT22;10958;50.892;3.992;2023-08-07T05:24:28;13.10;99.90
21592;DHT22;10958;50.892;3.992;2023-08-07T05:26:59;13.20;99.90
21592;DHT22;10958;50.892;3.992;2023-08-07T05:29:25;13.20;99.90
21592;DHT22;10958;50.892;3.992;2023-08-07T05:31:53;13.30;99.90
21592;DHT22;10958;50.892;3.992;2023-08-07T05:34:21;13.30;99.90
21592;DHT22;10958;50.892;3.992;2023-08-07T05:36:46;13.40;99.90
21592;DHT22;10958;50.892;3.992;2023-08-07T05:39:13;13.50;99.90
21592;DHT22;10958;50.892;3.992;2023-08-07T05:41:39;13.50;99.90
21592;DHT22;10958;50.892;3.992;2023-08-07T05:44:05;13.60;99.90
21592;DHT22;10958;50.892;3.992;2023-08-07T05:46:31;13.70;99.90
21592;DHT22;10958;50.892;3.992;2023-08-07T05:48:56;13.70;99.90
21592;DHT22;10958;50.892;3.992;2023-08-07T05:51:22;13.80;99.90
21592;DHT22;10958;50.892;3.992;2023-08-07T05:53:48;13.80;99.90
21592;DHT22;10958;50.892;3.992;2023-08-07T05:56:14;13.90;99.90
21592;DHT22;10958;50.892;3.992;2023-08-07T05:58:43;14.00;99.90
21592;DHT22;10958;50.892;3.992;2023-08-07T06:01:09;14.10;99.90
21592;DHT22;10958;50.892;3.992;2023-08-07T06:03:34;14.10;99.90
21592;DHT22;10958;50.892;3.992;2023-08-07T06:06:00;14.10;99.90
21592;DHT22;10958;50.892;3.992;2023-08-07T06:08:26;14.10;99.90
21592;DHT22;10958;50.892;3.992;2023-08-07T06:10:51;14.20;99.90
21592;DHT22;10958;50.892;3.992;2023-08-07T06:13:17;14.80;99.90
21592;DHT22;10958;50.892;3.992;2023-08-07T06:15:45;15.70;99.90
21592;DHT22;10958;50.892;3.992;2023-08-07T06:18:11;16.60;99.90
21592;DHT22;10958;50.892;3.992;2023-08-07T06:20:37;17.60;99.90
21592;DHT22;10958;50.892;3.992;2023-08-07T06:23:03;18.00;99.90
21592;DHT22;10958;50.892;3.992;2023-08-07T06:25:31;18.80;99.90
21592;DHT22;10958;50.892;3.992;2023-08-07T06:27:57;19.50;99.90
21592;DHT22;10958;50.892;3.992;2023-08-07T06:30:26;20.00;99.90
21592;DHT22;10958;50.892;3.992;2023-08-07T06:32:51;20.00;99.90
21592;DHT22;10958;50.892;3.992;2023-08-07T06:35:20;20.30;99.90
21592;DHT22;10958;50.892;3.992;2023-08-07T06:37:48;20.70;99.90
21592;DHT22;10958;50.892;3.992;2023-08-07T06:40:17;20.20;99.90
21592;DHT22;10958;50.892;3.992;2023-08-07T06:42:43;20.30;99.90
21592;DHT22;10958;50.892;3.992;2023-08-07T06:45:09;20.70;99.90
21592;DHT22;10958;50.892;3.992;2023-08-07T06:47:37;21.10;99.90
21592;DHT22;10958;50.892;3.992;2023-08-07T06:50:03;22.00;99.90
21592;DHT22;10958;50.892;3.992;2023-08-07T06:52:30;22.10;99.90
21592;DHT22;10958;50.892;3.992;2023-08-07T06:54:59;22.20;99.90
21592;DHT22;10958;50.892;3.992;2023-08-07T06:57:24;22.20;99.90
21592;DHT22;10958;50.892;3.992;2023-08-07T06:59:51;22.70;99.90
21592;DHT22;10958;50.892;3.992;2023-08-07T07:02:16;22.00;99.90
21592;DHT22;10958;50.892;3.992;2023-08-07T07:04:42;21.40;99.90
21592;DHT22;10958;50.892;3.992;2023-08-07T07:07:08;21.30;99.90
21592;DHT22;10958;50.892;3.992;2023-08-07T07:09:34;21.40;99.90
21592;DHT22;10958;50.892;3.992;2023-08-07T07:12:00;21.90;99.90
21592;DHT22;10958;50.892;3.992;2023-08-07T07:14:29;22.50;99.90
21592;DHT22;10958;50.892;3.992;2023-08-07T07:16:55;22.80;99.90
21592;DHT22;10958;50.892;3.992;2023-08-07T07:19:24;22.90;99.90
21592;DHT22;10958;50.892;3.992;2023-08-07T07:21:52;22.60;99.90
21592;DHT22;10958;50.892;3.992;2023-08-07T07:24:18;23.20;99.90
21592;DHT22;10958;50.892;3.992;2023-08-07T07:26:44;22.80;99.90
21592;DHT22;10958;50.892;3.992;2023-08-07T07:29:10;23.20;99.90
21592;DHT22;10958;50.892;3.992;2023-08-07T07:31:36;23.00;99.90
21592;DHT22;10958;50.892;3.992;2023-08-07T07:34:02;23.30;99.90
21592;DHT22;10958;50.892;3.992;2023-08-07T07:36:28;23.30;99.90
21592;DHT22;10958;50.892;3.992;2023-08-07T07:38:57;23.60;99.90
21592;DHT22;10958;50.892;3.992;2023-08-07T07:41:23;23.10;99.90
21592;DHT22;10958;50.892;3.992;2023-08-07T07:43:52;23.10;99.90
21592;DHT22;10958;50.892;3.992;2023-08-07T07:46:18;23.00;99.90
21592;DHT22;10958;50.892;3.992;2023-08-07T07:48:43;23.10;99.90
21592;DHT22;10958;50.892;3.992;2023-08-07T07:51:09;22.60;99.90
21592;DHT22;10958;50.892;3.992;2023-08-07T07:53:35;22.90;99.90
21592;DHT22;10958;50.892;3.992;2023-08-07T07:56:03;23.00;99.90
21592;DHT22;10958;50.892;3.992;2023-08-07T07:58:31;23.10;99.90
21592;DHT22;10958;50.892;3.992;2023-08-07T08:00:59;23.00;99.90
21592;DHT22;10958;50.892;3.992;2023-08-07T08:03:25;22.20;99.90
21592;DHT22;10958;50.892;3.992;2023-08-07T08:05:51;22.00;99.90
21592;DHT22;10958;50.892;3.992;2023-08-07T08:08:18;22.30;99.90
21592;DHT22;10958;50.892;3.992;2023-08-07T08:10:47;21.60;99.90
21592;DHT22;10958;50.892;3.992;2023-08-07T08:13:14;21.70;99.90
21592;DHT22;10958;50.892;3.992;2023-08-07T08:15:43;21.60;99.90
21592;DHT22;10958;50.892;3.992;2023-08-07T08:18:09;22.00;99.90
21592;DHT22;10958;50.892;3.992;2023-08-07T08:20:36;21.90;99.90
21592;DHT22;10958;50.892;3.992;2023-08-07T08:23:02;22.30;99.90
21592;DHT22;10958;50.892;3.992;2023-08-07T08:25:28;22.60;99.90
21592;DHT22;10958;50.892;3.992;2023-08-07T08:27:54;22.30;99.90
21592;DHT22;10958;50.892;3.992;2023-08-07T08:30:20;22.70;99.90
21592;DHT22;10958;50.892;3.992;2023-08-07T08:32:46;22.90;99.90
21592;DHT22;10958;50.892;3.992;2023-08-07T08:35:11;22.60;99.90
21592;DHT22;10958;50.892;3.992;2023-08-07T08:37:37;21.80;99.90
21592;DHT22;10958;50.892;3.992;2023-08-07T08:40:06;21.60;99.90
21592;DHT22;10958;50.892;3.992;2023-08-07T08:42:33;21.00;99.90
21592;DHT22;10958;50.892;3.992;2023-08-07T08:45:02;21.70;99.90
21592;DHT22;10958;50.892;3.992;2023-08-07T08:47:32;22.00;99.90
21592;DHT22;10958;50.892;3.992;2023-08-07T08:50:10;21.70;99.90
21592;DHT22;10958;50.892;3.992;2023-08-07T08:52:38;21.40;99.90
21592;DHT22;10958;50.892;3.992;2023-08-07T08:55:04;20.60;99.90
21592;DHT22;10958;50.892;3.992;2023-08-07T08:57:31;20.40;99.90
21592;DHT22;10958;50.892;3.992;2023-08-07T08:59:58;20.00;99.90
21592;DHT22;10958;50.892;3.992;2023-08-07T09:02:26;20.10;99.90
21592;DHT22;10958;50.892;3.992;2023-08-07T09:04:52;20.80;99.90
21592;DHT22;10958;50.892;3.992;2023-08-07T09:07:20;21.50;99.90
21592;DHT22;10958;50.892;3.992;2023-08-07T09:09:46;22.60;99.90
21592;DHT22;10958;50.892;3.992;2023-08-07T09:12:20;22.60;99.90
21592;DHT22;10958;50.892;3.992;2023-08-07T09:14:49;22.20;99.90
21592;DHT22;10958;50.892;3.992;2023-08-07T09:17:18;22.20;99.90
21592;DHT22;10958;50.892;3.992;2023-08-07T09:19:49;21.10;99.90
21592;DHT22;10958;50.892;3.992;2023-08-07T09:22:14;20.80;99.90
21592;DHT22;10958;50.892;3.992;2023-08-07T09:24:43;20.80;99.90
21592;DHT22;10958;50.892;3.992;2023-08-07T09:27:09;21.00;99.90
21592;DHT22;10958;50.892;3.992;2023-08-07T09:29:35;20.60;99.90
21592;DHT22;10958;50.892;3.992;2023-08-07T09:32:13;20.20;99.90
21592;DHT22;10958;50.892;3.992;2023-08-07T09:34:40;20.30;99.90
21592;DHT22;10958;50.892;3.992;2023-08-07T09:37:10;20.80;99.90
21592;DHT22;10958;50.892;3.992;2023-08-07T09:39:36;20.60;99.90
21592;DHT22;10958;50.892;3.992;2023-08-07T09:42:11;20.50;99.90
21592;DHT22;10958;50.892;3.992;2023-08-07T09:44:41;20.40;99.90
21592;DHT22;10958;50.892;3.992;2023-08-07T09:47:15;20.60;99.90
21592;DHT22;10958;50.892;3.992;2023-08-07T09:49:42;21.20;99.90
21592;DHT22;10958;50.892;3.992;2023-08-07T09:52:10;21.90;99.90
21592;DHT22;10958;50.892;3.992;2023-08-07T09:54:36;22.30;99.90
21592;DHT22;10958;50.892;3.992;2023-08-07T09:57:04;22.10;99.90
21592;DHT22;10958;50.892;3.992;2023-08-07T09:59:32;21.60;99.90
21592;DHT22;10958;50.892;3.992;2023-08-07T10:03:34;20.60;99.90
21592;DHT22;10958;50.892;3.992;2023-08-07T10:06:01;20.40;99.90
21592;DHT22;10958;50.892;3.992;2023-08-07T10:08:26;20.30;99.90
21592;DHT22;10958;50.892;3.992;2023-08-07T10:10:53;20.90;99.90
21592;DHT22;10958;50.892;3.992;2023-08-07T10:13:19;20.90;99.90
21592;DHT22;10958;50.892;3.992;2023-08-07T10:15:47;20.80;99.90
21592;DHT22;10958;50.892;3.992;2023-08-07T10:18:13;21.00;99.90
21592;DHT22;10958;50.892;3.992;2023-08-07T10:20:40;21.00;99.90
21592;DHT22;10958;50.892;3.992;2023-08-07T10:23:08;21.50;99.90
21592;DHT22;10958;50.892;3.992;2023-08-07T10:25:40;22.20;99.90
21592;DHT22;10958;50.892;3.992;2023-08-07T10:28:09;23.00;99.90
21592;DHT22;10958;50.892;3.992;2023-08-07T10:30:39;22.30;99.90
21592;DHT22;10958;50.892;3.992;2023-08-07T10:33:11;22.00;99.90
21592;DHT22;10958;50.892;3.992;2023-08-07T10:35:37;22.00;99.90
21592;DHT22;10958;50.892;3.992;2023-08-07T10:38:12;22.20;99.90
21592;DHT22;10958;50.892;3.992;2023-08-07T10:41:07;21.80;99.90
21592;DHT22;10958;50.892;3.992;2023-08-07T10:43:44;21.90;99.90
21592;DHT22;10958;50.892;3.992;2023-08-07T10:46:20;21.90;99.90
21592;DHT22;10958;50.892;3.992;2023-08-07T10:48:47;22.10;99.90
21592;DHT22;10958;50.892;3.992;2023-08-07T10:51:17;21.70;99.90
21592;DHT22;10958;50.892;3.992;2023-08-07T10:53:53;21.20;99.90
21592;DHT22;10958;50.892;3.992;2023-08-07T10:56:32;20.80;99.90
21592;DHT22;10958;50.892;3.992;2023-08-07T10:59:07;21.20;99.90
21592;DHT22;10958;50.892;3.992;2023-08-07T11:04:07;22.40;99.90
21592;DHT22;10958;50.892;3.992;2023-08-07T11:06:37;22.60;99.90
21592;DHT22;10958;50.892;3.992;2023-08-07T11:09:05;22.30;99.90
21592;DHT22;10958;50.892;3.992;2023-08-07T11:11:47;21.80;99.90
21592;DHT22;10958;50.892;3.992;2023-08-07T11:14:18;21.70;99.90
21592;DHT22;10958;50.892;3.992;2023-08-07T11:16:46;22.10;99.90
21592;DHT22;10958;50.892;3.992;2023-08-07T11:19:18;22.40;99.90
21592;DHT22;10958;50.892;3.992;2023-08-07T11:21:45;22.40;99.90
21592;DHT22;10958;50.892;3.992;2023-08-07T11:24:14;22.70;99.90
21592;DHT22;10958;50.892;3.992;2023-08-07T11:26:43;22.60;99.90
21592;DHT22;10958;50.892;3.992;2023-08-07T11:29:18;22.40;99.90
21592;DHT22;10958;50.892;3.992;2023-08-07T11:31:44;22.80;99.90
21592;DHT22;10958;50.892;3.992;2023-08-07T11:34:11;22.80;99.90
21592;DHT22;10958;50.892;3.992;2023-08-07T11:36:41;22.10;99.90
21592;DHT22;10958;50.892;3.992;2023-08-07T11:39:07;22.40;99.90
21592;DHT22;10958;50.892;3.992;2023-08-07T11:41:33;22.60;99.90
21592;DHT22;10958;50.892;3.992;2023-08-07T11:43:59;22.20;99.90
21592;DHT22;10958;50.892;3.992;2023-08-07T11:46:25;21.80;99.90
21592;DHT22;10958;50.892;3.992;2023-08-07T11:48:56;21.20;99.90
21592;DHT22;10958;50.892;3.992;2023-08-07T11:51:24;21.20;99.90
21592;DHT22;10958;50.892;3.992;2023-08-07T11:53:51;21.40;99.90
21592;DHT22;10958;50.892;3.992;2023-08-07T11:56:22;21.60;99.90
21592;DHT22;10958;50.892;3.992;2023-08-07T11:58:50;21.80;99.90
21592;DHT22;10958;50.892;3.992;2023-08-07T12:01:26;22.10;99.90
21592;DHT22;10958;50.892;3.992;2023-08-07T12:04:07;22.60;99.90
21592;DHT22;10958;50.892;3.992;2023-08-07T12:06:35;22.50;99.90
21592;DHT22;10958;50.892;3.992;2023-08-07T12:09:03;22.20;99.90
21592;DHT22;10958;50.892;3.992;2023-08-07T12:11:29;22.00;99.90
21592;DHT22;10958;50.892;3.992;2023-08-07T12:14:00;21.80;99.90
21592;DHT22;10958;50.892;3.992;2023-08-07T12:16:32;21.50;99.90
21592;DHT22;10958;50.892;3.992;2023-08-07T12:18:58;21.40;99.90
21592;DHT22;10958;50.892;3.992;2023-08-07T12:21:26;21.50;99.90
21592;DHT22;10958;50.892;3.992;2023-08-07T12:23:56;21.60;99.90
21592;DHT22;10958;50.892;3.992;2023-08-07T12:26:23;21.90;99.90
21592;DHT22;10958;50.892;3.992;2023-08-07T12:28:52;21.90;99.90
21592;DHT22;10958;50.892;3.992;2023-08-07T12:31:21;21.60;99.90
21592;DHT22;10958;50.892;3.992;2023-08-07T12:33:49;21.50;99.90
21592;DHT22;10958;50.892;3.992;2023-08-07T12:36:14;21.40;99.90
21592;DHT22;10958;50.892;3.992;2023-08-07T12:38:42;21.30;99.90
21592;DHT22;10958;50.892;3.992;2023-08-07T12:41:08;21.30;99.90
21592;DHT22;10958;50.892;3.992;2023-08-07T12:43:34;20.80;99.90
21592;DHT22;10958;50.892;3.992;2023-08-07T12:46:00;20.70;99.90
21592;DHT22;10958;50.892;3.992;2023-08-07T12:48:26;20.60;99.90
21592;DHT22;10958;50.892;3.992;2023-08-07T12:50:54;20.40;99.90
21592;DHT22;10958;50.892;3.992;2023-08-07T12:53:20;20.20;99.90
21592;DHT22;10958;50.892;3.992;2023-08-07T12:55:48;20.20;99.90
21592;DHT22;10958;50.892;3.992;2023-08-07T12:58:14;20.60;99.90
21592;DHT22;10958;50.892;3.992;2023-08-07T13:00:41;20.90;99.90
21592;DHT22;10958;50.892;3.992;2023-08-07T13:03:07;20.80;99.90
21592;DHT22;10958;50.892;3.992;2023-08-07T13:05:33;20.80;99.90
21592;DHT22;10958;50.892;3.992;2023-08-07T13:07:59;21.00;99.90
21592;DHT22;10958;50.892;3.992;2023-08-07T13:10:25;21.00;99.90
21592;DHT22;10958;50.892;3.992;2023-08-07T13:12:54;21.30;99.90
21592;DHT22;10958;50.892;3.992;2023-08-07T13:15:21;21.50;99.90
21592;DHT22;10958;50.892;3.992;2023-08-07T13:17:46;21.50;99.90
21592;DHT22;10958;50.892;3.992;2023-08-07T13:20:13;21.50;99.90
21592;DHT22;10958;50.892;3.992;2023-08-07T13:22:41;21.60;99.90
21592;DHT22;10958;50.892;3.992;2023-08-07T13:25:08;21.70;99.90
21592;DHT22;10958;50.892;3.992;2023-08-07T13:27:34;22.00;99.90
21592;DHT22;10958;50.892;3.992;2023-08-07T13:30:03;22.00;99.90
21592;DHT22;10958;50.892;3.992;2023-08-07T13:32:29;22.20;99.90
21592;DHT22;10958;50.892;3.992;2023-08-07T13:34:55;22.20;99.90
21592;DHT22;10958;50.892;3.992;2023-08-07T13:37:22;22.40;99.90
21592;DHT22;10958;50.892;3.992;2023-08-07T13:39:50;22.40;99.90
21592;DHT22;10958;50.892;3.992;2023-08-07T13:42:18;22.10;99.90
21592;DHT22;10958;50.892;3.992;2023-08-07T13:44:45;21.80;99.90
21592;DHT22;10958;50.892;3.992;2023-08-07T13:47:11;21.70;99.90
21592;DHT22;10958;50.892;3.992;2023-08-07T13:49:37;21.60;99.90
21592;DHT22;10958;50.892;3.992;2023-08-07T13:52:04;21.40;99.90
21592;DHT22;10958;50.892;3.992;2023-08-07T13:54:30;20.90;99.90
21592;DHT22;10958;50.892;3.992;2023-08-07T13:56:55;20.90;99.90
21592;DHT22;10958;50.892;3.992;2023-08-07T13:59:21;20.50;99.90
21592;DHT22;10958;50.892;3.992;2023-08-07T14:01:50;20.50;99.90
21592;DHT22;10958;50.892;3.992;2023-08-07T14:04:19;20.60;99.90
21592;DHT22;10958;50.892;3.992;2023-08-07T14:06:46;20.70;99.90
21592;DHT22;10958;50.892;3.992;2023-08-07T14:09:11;20.70;99.90
21592;DHT22;10958;50.892;3.992;2023-08-07T14:11:41;20.40;99.90
21592;DHT22;10958;50.892;3.992;2023-08-07T14:14:09;20.20;99.90
21592;DHT22;10958;50.892;3.992;2023-08-07T14:16:38;20.40;99.90
21592;DHT22;10958;50.892;3.992;2023-08-07T14:19:03;20.70;99.90
21592;DHT22;10958;50.892;3.992;2023-08-07T14:21:29;20.90;99.90
21592;DHT22;10958;50.892;3.992;2023-08-07T14:23:55;21.00;99.90
21592;DHT22;10958;50.892;3.992;2023-08-07T14:26:21;20.80;99.90
21592;DHT22;10958;50.892;3.992;2023-08-07T14:28:50;20.80;99.90
21592;DHT22;10958;50.892;3.992;2023-08-07T14:31:16;20.30;99.90
21592;DHT22;10958;50.892;3.992;2023-08-07T14:33:42;20.30;99.90
21592;DHT22;10958;50.892;3.992;2023-08-07T14:36:07;20.40;99.90
21592;DHT22;10958;50.892;3.992;2023-08-07T14:38:34;20.50;99.90
21592;DHT22;10958;50.892;3.992;2023-08-07T14:41:00;20.70;99.90
21592;DHT22;10958;50.892;3.992;2023-08-07T14:43:31;20.60;99.90
21592;DHT22;10958;50.892;3.992;2023-08-07T14:45:57;20.50;99.90
21592;DHT22;10958;50.892;3.992;2023-08-07T14:48:24;20.60;99.90
21592;DHT22;10958;50.892;3.992;2023-08-07T14:50:49;20.80;99.90
21592;DHT22;10958;50.892;3.992;2023-08-07T14:53:15;20.90;99.90
21592;DHT22;10958;50.892;3.992;2023-08-07T14:55:44;20.90;99.90
21592;DHT22;10958;50.892;3.992;2023-08-07T14:58:12;20.90;99.90
21592;DHT22;10958;50.892;3.992;2023-08-07T15:00:41;20.80;99.90
21592;DHT22;10958;50.892;3.992;2023-08-07T15:03:06;21.00;99.90
21592;DHT22;10958;50.892;3.992;2023-08-07T15:05:35;21.10;99.90
21592;DHT22;10958;50.892;3.992;2023-08-07T15:08:03;21.40;99.90
21592;DHT22;10958;50.892;3.992;2023-08-07T15:10:34;21.50;99.90
21592;DHT22;10958;50.892;3.992;2023-08-07T15:13:00;21.40;99.90
21592;DHT22;10958;50.892;3.992;2023-08-07T15:15:28;21.20;99.90
21592;DHT22;10958;50.892;3.992;2023-08-07T15:17:54;21.10;99.90
21592;DHT22;10958;50.892;3.992;2023-08-07T15:20:20;20.70;99.90
21592;DHT22;10958;50.892;3.992;2023-08-07T15:22:47;20.70;99.90
21592;DHT22;10958;50.892;3.992;2023-08-07T15:25:13;20.80;99.90
21592;DHT22;10958;50.892;3.992;2023-08-07T15:27:41;21.00;99.90
21592;DHT22;10958;50.892;3.992;2023-08-07T15:30:08;20.90;99.90
21592;DHT22;10958;50.892;3.992;2023-08-07T15:32:35;20.90;99.90
21592;DHT22;10958;50.892;3.992;2023-08-07T15:35:02;21.00;99.90
21592;DHT22;10958;50.892;3.992;2023-08-07T15:37:31;20.90;99.90